createdAt,value
2018-07-30T00:00:46.927Z,20.38
2018-07-30T00:01:46.965Z,20.32
2018-07-30T00:02:47.001Z,20.18
2018-07-30T00:03:47.038Z,20.20
2018-07-30T00:04:47.074Z,20.23
2018-07-30T00:05:47.114Z,20.21
2018-07-30T00:06:47.147Z,20.14
2018-07-30T00:07:47.183Z,20.11
2018-07-30T00:08:47.220Z,20.28
2018-07-30T00:09:47.257Z,20.20
2018-07-30T00:10:47.298Z,20.26
2018-07-30T00:11:47.330Z,20.29
2018-07-30T00:12:47.369Z,20.31
2018-07-30T00:13:47.402Z,20.23
2018-07-30T00:14:47.439Z,20.24
2018-07-30T00:15:47.476Z,20.23
2018-07-30T00:16:47.515Z,20.26
2018-07-30T00:17:47.549Z,20.33
2018-07-30T00:18:47.585Z,20.36
2018-07-30T00:19:47.622Z,20.31
2018-07-30T00:20:47.658Z,20.26
2018-07-30T00:21:47.694Z,20.13
2018-07-30T00:22:47.731Z,20.28
2018-07-30T00:23:47.767Z,20.23
2018-07-30T00:24:47.803Z,20.32
2018-07-30T00:25:47.840Z,20.28
2018-07-30T00:26:47.877Z,20.29
2018-07-30T00:27:47.913Z,20.20
2018-07-30T00:28:47.950Z,20.18
2018-07-30T00:29:47.986Z,20.20
2018-07-30T00:30:48.022Z,20.20
2018-07-30T00:31:48.059Z,20.26
2018-07-30T00:32:48.095Z,20.23
2018-07-30T00:33:48.132Z,20.18
2018-07-30T00:34:48.174Z,20.26
2018-07-30T00:35:48.205Z,20.28
2018-07-30T00:36:48.244Z,20.21
2018-07-30T00:37:48.277Z,20.28
2018-07-30T00:38:48.314Z,20.33
2018-07-30T00:39:48.351Z,20.31
2018-07-30T00:40:48.386Z,20.17
2018-07-30T00:41:48.424Z,20.17
2018-07-30T00:42:48.458Z,20.13
2018-07-30T00:43:48.497Z,20.08
2018-07-30T00:44:48.532Z,20.08
2018-07-30T00:45:48.568Z,20.02
2018-07-30T00:46:48.604Z,20.08
2018-07-30T00:47:48.641Z,20.11
2018-07-30T00:48:48.677Z,20.03
2018-07-30T00:49:48.713Z,19.96
2018-07-30T00:50:48.750Z,19.96
2018-07-30T00:51:48.786Z,19.88
2018-07-30T00:52:48.822Z,19.81
2018-07-30T00:53:48.858Z,19.73
2018-07-30T00:54:48.895Z,19.81
2018-07-30T00:55:48.931Z,19.83
2018-07-30T00:56:48.972Z,19.77
2018-07-30T00:57:49.407Z,19.74
2018-07-30T00:58:49.040Z,19.68
2018-07-30T00:59:49.077Z,19.63
2018-07-30T01:00:49.112Z,19.71
2018-07-30T01:01:49.149Z,19.71
2018-07-30T01:02:49.593Z,19.81
2018-07-30T01:03:49.423Z,19.84
2018-07-30T01:04:49.257Z,19.86
2018-07-30T01:05:49.294Z,19.88
2018-07-30T01:06:49.330Z,19.83
2018-07-30T01:07:49.366Z,19.80
2018-07-30T01:08:49.401Z,19.81
2018-07-30T01:09:49.437Z,19.81
2018-07-30T01:10:49.676Z,19.86
2018-07-30T01:11:49.510Z,19.92
2018-07-30T01:12:49.546Z,19.84
2018-07-30T01:13:49.582Z,19.88
2018-07-30T01:14:49.619Z,19.81
2018-07-30T01:15:49.654Z,19.80
2018-07-30T01:16:50.095Z,19.78
2018-07-30T01:17:49.726Z,19.81
2018-07-30T01:18:49.763Z,19.81
2018-07-30T01:19:49.799Z,19.76
2018-07-30T01:20:49.835Z,19.73
2018-07-30T01:21:49.871Z,19.83
2018-07-30T01:22:49.907Z,19.77
2018-07-30T01:23:49.948Z,19.84
2018-07-30T01:29:41.760Z,19.81
2018-07-30T01:30:41.800Z,19.77
2018-07-30T01:31:41.827Z,19.76
2018-07-30T01:32:41.865Z,19.77
2018-07-30T01:33:41.901Z,19.66
2018-07-30T01:34:41.937Z,19.78
2018-07-30T01:35:41.973Z,19.69
2018-07-30T01:37:24.560Z,19.65
2018-07-30T01:38:24.594Z,19.50
2018-07-30T01:39:24.631Z,19.59
2018-07-30T01:40:24.666Z,19.56
2018-07-30T01:41:24.702Z,19.44
2018-07-30T01:42:24.738Z,19.40
2018-07-30T01:43:24.780Z,19.47
2018-07-30T01:45:07.360Z,19.58
2018-07-30T01:46:07.397Z,19.47
2018-07-30T01:47:07.432Z,19.43
2018-07-30T01:48:07.467Z,19.41
2018-07-30T01:49:07.504Z,19.44
2018-07-30T01:50:07.542Z,19.41
2018-07-30T01:51:07.579Z,19.40
2018-07-30T01:52:07.611Z,19.44
2018-07-30T01:53:07.648Z,19.37
2018-07-30T01:54:07.683Z,19.26
2018-07-30T01:55:07.720Z,19.33
2018-07-30T01:56:07.754Z,19.32
2018-07-30T01:57:07.791Z,19.23
2018-07-30T01:58:07.826Z,19.16
2018-07-30T01:59:07.864Z,19.13
2018-07-30T02:00:07.900Z,19.14
2018-07-30T02:01:07.935Z,19.14
2018-07-30T02:04:38.872Z,19.19
2018-07-30T02:05:39.132Z,19.16
2018-07-30T02:06:38.964Z,19.11
2018-07-30T02:07:38.997Z,19.21
2018-07-30T02:08:39.036Z,19.25
2018-07-30T02:09:39.073Z,19.28
2018-07-30T02:10:39.105Z,19.26
2018-07-30T02:11:39.345Z,19.26
2018-07-30T02:12:39.386Z,19.22
2018-07-30T02:14:39.856Z,19.11
2018-07-30T02:15:39.287Z,19.04
2018-07-30T02:27:11.138Z,19.16
2018-07-30T02:28:11.170Z,19.28
2018-07-30T02:29:11.535Z,19.26
2018-07-30T02:30:11.241Z,19.21
2018-07-30T02:31:11.278Z,19.11
2018-07-30T02:32:11.313Z,19.16
2018-07-30T02:33:11.348Z,19.10
2018-07-30T02:34:11.383Z,18.98
2018-07-30T02:35:11.421Z,18.94
2018-07-30T02:36:11.454Z,18.73
2018-07-30T02:37:11.491Z,18.58
2018-07-30T02:38:11.526Z,18.44
2018-07-30T02:39:11.564Z,18.41
2018-07-30T02:40:11.598Z,18.41
2018-07-30T02:41:11.633Z,18.36
2018-07-30T02:42:11.668Z,18.30
2018-07-30T02:43:11.704Z,18.39
2018-07-30T02:44:11.743Z,18.45
2018-07-30T02:45:11.775Z,18.48
2018-07-30T02:46:11.810Z,18.44
2018-07-30T02:47:11.846Z,18.62
2018-07-30T02:48:11.882Z,18.62
2018-07-30T02:49:11.916Z,18.63
2018-07-30T02:50:11.952Z,18.80
2018-07-30T02:51:11.993Z,18.76
2018-07-30T02:52:12.023Z,18.84
2018-07-30T02:53:12.057Z,18.76
2018-07-30T02:54:12.095Z,18.88
2018-07-30T02:55:12.130Z,18.85
2018-07-30T02:56:12.164Z,18.85
2018-07-30T02:57:12.199Z,18.88
2018-07-30T02:58:12.235Z,18.87
2018-07-30T02:59:12.270Z,18.85
2018-07-30T03:00:12.306Z,18.84
2018-07-30T03:01:12.340Z,18.73
2018-07-30T03:02:12.377Z,18.76
2018-07-30T03:03:12.410Z,18.76
2018-07-30T03:04:12.447Z,18.80
2018-07-30T03:05:12.483Z,18.75
2018-07-30T03:06:12.518Z,18.80
2018-07-30T03:07:12.554Z,18.75
2018-07-30T03:08:12.591Z,18.66
2018-07-30T03:09:12.624Z,18.60
2018-07-30T03:10:12.663Z,18.63
2018-07-30T03:11:12.695Z,18.62
2018-07-30T03:12:12.730Z,18.48
2018-07-30T03:13:12.764Z,18.44
2018-07-30T03:14:12.801Z,18.32
2018-07-30T03:15:12.838Z,18.32
2018-07-30T03:16:12.870Z,18.32
2018-07-30T03:17:12.906Z,18.26
2018-07-30T03:18:12.945Z,18.30
2018-07-30T03:19:12.978Z,18.35
2018-07-30T03:20:13.011Z,18.37
2018-07-30T03:21:13.049Z,18.48
2018-07-30T03:22:13.083Z,18.52
2018-07-30T03:23:13.119Z,18.55
2018-07-30T03:24:13.152Z,18.51
2018-07-30T03:25:13.189Z,18.50
2018-07-30T03:26:13.223Z,18.52
2018-07-30T03:27:13.260Z,18.52
2018-07-30T03:28:13.297Z,18.58
2018-07-30T03:29:13.329Z,18.60
2018-07-30T03:30:13.365Z,18.55
2018-07-30T03:31:13.401Z,18.60
2018-07-30T03:32:13.638Z,18.55
2018-07-30T03:33:13.470Z,18.57
2018-07-30T03:34:13.507Z,18.58
2018-07-30T03:35:13.541Z,18.57
2018-07-30T03:36:13.580Z,18.67
2018-07-30T03:37:13.612Z,18.54
2018-07-30T03:38:13.647Z,18.58
2018-07-30T03:39:13.683Z,18.63
2018-07-30T03:40:13.716Z,18.54
2018-07-30T03:41:13.751Z,18.62
2018-07-30T03:42:13.824Z,18.45
2018-07-30T03:43:13.827Z,18.57
2018-07-30T03:44:13.858Z,18.50
2018-07-30T03:45:13.893Z,18.35
2018-07-30T03:46:13.928Z,18.30
2018-07-30T03:47:13.964Z,18.27
2018-07-30T03:48:13.999Z,18.35
2018-07-30T03:49:14.032Z,18.35
2018-07-30T03:50:14.069Z,18.35
2018-07-30T03:51:14.105Z,18.26
2018-07-30T03:52:14.138Z,18.29
2018-07-30T03:53:14.173Z,18.35
2018-07-30T03:54:14.210Z,18.37
2018-07-30T03:55:14.244Z,18.37
2018-07-30T03:56:14.281Z,18.36
2018-07-30T03:57:14.314Z,18.47
2018-07-30T03:58:14.351Z,18.44
2018-07-30T03:59:14.384Z,18.54
2018-07-30T04:00:14.647Z,18.39
2018-07-30T04:01:14.455Z,18.47
2018-07-30T04:02:14.491Z,18.50
2018-07-30T04:03:14.526Z,18.42
2018-07-30T04:04:14.560Z,18.42
2018-07-30T04:05:14.595Z,18.42
2018-07-30T04:06:14.710Z,18.42
2018-07-30T04:07:14.666Z,18.47
2018-07-30T04:08:14.699Z,18.44
2018-07-30T04:09:14.737Z,18.44
2018-07-30T04:10:14.770Z,18.39
2018-07-30T04:11:14.806Z,18.39
2018-07-30T04:12:14.843Z,18.29
2018-07-30T04:13:14.876Z,18.39
2018-07-30T04:14:14.913Z,18.30
2018-07-30T04:15:14.952Z,18.39
2018-07-30T04:16:14.981Z,18.44
2018-07-30T04:17:15.018Z,18.36
2018-07-30T04:18:15.051Z,18.41
2018-07-30T04:19:15.089Z,18.36
2018-07-30T04:20:15.122Z,18.44
2018-07-30T04:21:15.157Z,18.41
2018-07-30T04:22:15.252Z,18.26
2018-07-30T04:23:15.227Z,18.33
2018-07-30T04:24:15.262Z,18.35
2018-07-30T04:25:15.297Z,18.30
2018-07-30T04:26:15.332Z,18.21
2018-07-30T04:27:15.366Z,18.21
2018-07-30T04:28:15.401Z,18.14
2018-07-30T04:29:15.436Z,18.11
2018-07-30T04:30:15.477Z,18.08
2018-07-30T04:31:15.511Z,18.03
2018-07-30T04:32:15.543Z,18.05
2018-07-30T04:33:15.576Z,18.07
2018-07-30T04:34:15.612Z,18.00
2018-07-30T04:35:15.647Z,17.96
2018-07-30T04:36:15.685Z,17.95
2018-07-30T04:37:15.717Z,17.93
2018-07-30T04:38:15.755Z,17.96
2018-07-30T04:39:15.788Z,18.05
2018-07-30T04:40:15.822Z,17.93
2018-07-30T04:41:15.858Z,17.97
2018-07-30T04:42:15.892Z,18.14
2018-07-30T04:43:15.928Z,18.11
2018-07-30T04:44:15.964Z,18.10
2018-07-30T04:45:15.998Z,18.20
2018-07-30T04:46:16.034Z,18.20
2018-07-30T04:47:16.069Z,18.14
2018-07-30T04:48:16.104Z,18.17
2018-07-30T04:49:16.187Z,18.26
2018-07-30T04:50:16.263Z,18.20
2018-07-30T04:51:16.210Z,18.27
2018-07-30T04:52:16.244Z,18.41
2018-07-30T04:53:16.281Z,18.44
2018-07-30T04:54:16.315Z,18.66
2018-07-30T04:55:16.352Z,18.80
2018-07-30T04:56:16.385Z,18.78
2018-07-30T04:57:16.424Z,18.84
2018-07-30T04:58:16.455Z,18.92
2018-07-30T04:59:16.492Z,19.02
2018-07-30T05:00:16.527Z,19.00
2018-07-30T05:01:16.563Z,19.07
2018-07-30T05:02:16.598Z,19.18
2018-07-30T05:03:16.633Z,19.19
2018-07-30T05:04:16.667Z,19.19
2018-07-30T05:05:16.703Z,19.29
2018-07-30T05:06:16.738Z,19.36
2018-07-30T05:07:16.773Z,19.28
2018-07-30T05:08:16.809Z,19.37
2018-07-30T05:09:16.844Z,19.41
2018-07-30T05:10:16.881Z,19.51
2018-07-30T05:11:16.953Z,19.46
2018-07-30T05:12:16.952Z,19.43
2018-07-30T05:13:16.987Z,19.48
2018-07-30T05:14:17.023Z,19.56
2018-07-30T05:15:17.061Z,19.44
2018-07-30T05:16:17.095Z,19.47
2018-07-30T05:17:17.128Z,19.54
2018-07-30T05:18:17.165Z,19.55
2018-07-30T05:19:17.220Z,19.58
2018-07-30T05:20:17.236Z,19.69
2018-07-30T05:21:17.272Z,19.71
2018-07-30T05:22:17.308Z,19.76
2018-07-30T05:23:17.345Z,19.73
2018-07-30T05:24:17.378Z,19.77
2018-07-30T05:25:17.415Z,19.95
2018-07-30T05:26:17.451Z,20.02
2018-07-30T05:27:17.489Z,19.96
2018-07-30T05:28:17.521Z,20.06
2018-07-30T05:29:17.560Z,20.08
2018-07-30T05:30:17.594Z,20.08
2018-07-30T05:31:17.632Z,20.05
2018-07-30T05:32:17.667Z,20.06
2018-07-30T05:33:17.703Z,20.08
2018-07-30T05:34:17.739Z,20.11
2018-07-30T05:35:17.781Z,20.28
2018-07-30T05:36:17.810Z,20.31
2018-07-30T05:37:17.895Z,20.35
2018-07-30T05:38:17.883Z,20.51
2018-07-30T05:39:17.922Z,20.52
2018-07-30T05:40:17.954Z,20.59
2018-07-30T05:41:17.992Z,20.62
2018-07-30T05:42:18.028Z,20.74
2018-07-30T05:43:18.065Z,20.77
2018-07-30T05:44:18.102Z,20.88
2018-07-30T05:45:18.137Z,20.89
2018-07-30T05:46:18.174Z,20.99
2018-07-30T05:47:18.210Z,21.04
2018-07-30T05:48:18.247Z,21.19
2018-07-30T05:49:18.283Z,21.17
2018-07-30T05:50:18.322Z,21.12
2018-07-30T05:51:18.355Z,20.91
2018-07-30T05:52:18.395Z,20.88
2018-07-30T05:53:18.428Z,20.95
2018-07-30T05:54:18.466Z,21.06
2018-07-30T05:55:18.505Z,21.19
2018-07-30T05:56:18.538Z,21.16
2018-07-30T05:57:18.580Z,20.98
2018-07-30T05:58:18.612Z,20.95
2018-07-30T05:59:18.665Z,20.97
2018-07-30T06:00:18.687Z,21.09
2018-07-30T06:01:18.723Z,21.22
2018-07-30T06:02:18.759Z,21.24
2018-07-30T06:03:18.795Z,21.27
2018-07-30T06:04:18.834Z,21.22
2018-07-30T06:05:18.873Z,21.44
2018-07-30T06:06:18.907Z,21.28
2018-07-30T06:07:18.944Z,21.43
2018-07-30T06:08:18.981Z,21.54
2018-07-30T06:09:19.017Z,21.58
2018-07-30T06:10:19.143Z,21.69
2018-07-30T06:11:19.092Z,21.80
2018-07-30T06:12:19.127Z,21.83
2018-07-30T06:13:19.165Z,22.05
2018-07-30T06:14:19.207Z,22.17
2018-07-30T06:15:19.246Z,22.15
2018-07-30T06:16:19.277Z,22.10
2018-07-30T06:17:19.315Z,22.24
2018-07-30T06:18:19.352Z,22.22
2018-07-30T06:19:19.389Z,22.27
2018-07-30T06:20:19.425Z,22.39
2018-07-30T06:21:19.464Z,22.37
2018-07-30T06:22:19.501Z,22.37
2018-07-30T06:23:19.539Z,22.37
2018-07-30T06:24:19.575Z,22.47
2018-07-30T06:25:19.611Z,22.55
2018-07-30T06:26:19.699Z,22.54
2018-07-30T06:27:19.739Z,22.62
2018-07-30T06:28:19.767Z,22.75
2018-07-30T06:29:19.764Z,22.82
2018-07-30T06:30:19.800Z,22.85
2018-07-30T06:31:19.840Z,22.94
2018-07-30T06:32:19.875Z,22.92
2018-07-30T06:33:19.914Z,22.97
2018-07-30T06:34:19.951Z,22.92
2018-07-30T06:35:19.990Z,22.94
2018-07-30T06:36:20.026Z,22.92
2018-07-30T06:37:20.065Z,23.01
2018-07-30T06:38:20.141Z,23.15
2018-07-30T06:39:20.141Z,23.17
2018-07-30T06:40:20.179Z,23.25
2018-07-30T06:41:20.215Z,23.31
2018-07-30T06:42:20.254Z,23.39
2018-07-30T06:44:20.331Z,23.63
2018-07-30T06:45:20.368Z,23.70
2018-07-30T06:46:20.427Z,23.73
2018-07-30T06:47:20.670Z,23.88
2018-07-30T06:48:20.988Z,23.85
2018-07-30T06:51:20.600Z,24.00
2018-07-30T06:52:20.653Z,24.08
2018-07-30T06:53:20.729Z,24.13
2018-07-30T06:54:20.731Z,24.13
2018-07-30T06:55:20.750Z,24.15
2018-07-30T06:56:20.789Z,24.25
2018-07-30T06:57:20.849Z,24.32
2018-07-30T06:58:20.887Z,24.35
2018-07-30T06:59:20.923Z,24.40
2018-07-30T07:00:20.941Z,24.49
2018-07-30T07:01:21.002Z,24.60
2018-07-30T07:02:21.043Z,24.68
2018-07-30T07:03:21.156Z,24.77
2018-07-30T07:04:21.098Z,24.83
2018-07-30T07:05:21.136Z,24.88
2018-07-30T07:06:21.175Z,24.90
2018-07-30T07:07:21.212Z,24.95
2018-07-30T07:08:21.250Z,24.98
2018-07-30T07:09:21.290Z,25.08
2018-07-30T07:10:21.329Z,25.18
2018-07-30T07:11:21.368Z,25.14
2018-07-30T07:12:21.406Z,25.25
2018-07-30T07:13:21.445Z,25.39
2018-07-30T07:14:21.484Z,25.43
2018-07-30T07:15:21.524Z,25.39
2018-07-30T07:16:21.562Z,25.54
2018-07-30T07:17:21.601Z,25.62
2018-07-30T07:18:21.653Z,25.72
2018-07-30T07:19:21.681Z,25.69
2018-07-30T07:20:21.742Z,25.87
2018-07-30T07:21:21.806Z,25.90
2018-07-30T07:22:21.821Z,25.97
2018-07-30T07:23:21.839Z,26.12
2018-07-30T07:24:21.877Z,26.21
2018-07-30T07:25:21.942Z,26.23
2018-07-30T07:26:21.955Z,26.33
2018-07-30T07:27:21.996Z,26.39
2018-07-30T07:28:22.035Z,26.52
2018-07-30T07:29:22.075Z,26.54
2018-07-30T07:30:22.115Z,26.60
2018-07-30T07:31:22.153Z,26.57
2018-07-30T07:32:22.193Z,26.65
2018-07-30T07:33:22.235Z,26.66
2018-07-30T07:34:22.273Z,26.91
2018-07-30T07:35:22.314Z,26.92
2018-07-30T07:36:22.351Z,27.06
2018-07-30T07:37:22.391Z,27.04
2018-07-30T07:38:22.433Z,27.10
2018-07-30T07:39:22.473Z,27.10
2018-07-30T07:40:22.539Z,27.29
2018-07-30T07:41:22.552Z,27.31
2018-07-30T07:42:22.597Z,27.43
2018-07-30T07:43:22.633Z,27.39
2018-07-30T07:44:22.672Z,27.46
2018-07-30T07:45:22.714Z,27.55
2018-07-30T07:46:22.841Z,27.63
2018-07-30T07:47:22.800Z,27.60
2018-07-30T07:48:22.834Z,27.63
2018-07-30T07:49:22.875Z,27.77
2018-07-30T07:50:23.163Z,27.87
2018-07-30T07:51:22.961Z,27.87
2018-07-30T07:52:23.005Z,27.94
2018-07-30T07:53:23.038Z,27.96
2018-07-30T07:54:23.078Z,28.07
2018-07-30T07:55:23.121Z,28.00
2018-07-30T07:56:23.159Z,28.09
2018-07-30T07:57:23.216Z,28.12
2018-07-30T07:58:23.240Z,28.18
2018-07-30T07:59:23.282Z,28.31
2018-07-30T08:00:23.322Z,28.31
2018-07-30T08:01:23.384Z,28.36
2018-07-30T08:02:23.404Z,28.52
2018-07-30T08:03:23.445Z,28.61
2018-07-30T08:04:23.485Z,28.64
2018-07-30T08:05:23.530Z,28.80
2018-07-30T08:06:23.569Z,28.77
2018-07-30T08:07:23.609Z,28.78
2018-07-30T08:08:23.648Z,28.73
2018-07-30T08:09:23.691Z,28.80
2018-07-30T08:10:23.732Z,28.80
2018-07-30T08:11:23.772Z,28.93
2018-07-30T08:12:23.813Z,28.95
2018-07-30T08:13:23.855Z,29.06
2018-07-30T08:14:23.895Z,28.98
2018-07-30T08:15:24.363Z,28.93
2018-07-30T08:16:24.042Z,29.12
2018-07-30T08:17:24.019Z,29.02
2018-07-30T08:18:24.061Z,29.19
2018-07-30T08:19:24.102Z,29.24
2018-07-30T08:20:24.144Z,28.88
2018-07-30T08:21:24.183Z,29.14
2018-07-30T08:22:24.257Z,29.09
2018-07-30T08:23:24.270Z,29.33
2018-07-30T08:24:24.308Z,29.43
2018-07-30T08:25:24.351Z,29.57
2018-07-30T08:26:24.392Z,29.46
2018-07-30T08:27:24.432Z,29.52
2018-07-30T08:28:24.491Z,29.52
2018-07-30T08:29:24.515Z,29.55
2018-07-30T08:30:24.557Z,29.70
2018-07-30T08:31:24.600Z,29.57
2018-07-30T08:32:24.639Z,29.63
2018-07-30T08:33:24.681Z,29.78
2018-07-30T08:34:24.723Z,29.73
2018-07-30T08:35:24.765Z,29.76
2018-07-30T08:36:24.807Z,29.76
2018-07-30T08:37:24.852Z,29.80
2018-07-30T08:38:24.892Z,29.67
2018-07-30T08:39:24.935Z,29.82
2018-07-30T08:40:24.975Z,29.87
2018-07-30T08:41:25.018Z,29.97
2018-07-30T08:42:25.060Z,30.05
2018-07-30T08:43:25.102Z,30.11
2018-07-30T08:44:25.143Z,30.24
2018-07-30T08:45:25.188Z,30.26
2018-07-30T08:46:25.231Z,30.43
2018-07-30T08:47:25.270Z,30.43
2018-07-30T08:48:25.313Z,30.55
2018-07-30T08:49:25.374Z,30.76
2018-07-30T08:50:25.396Z,30.88
2018-07-30T08:51:25.440Z,30.95
2018-07-30T08:52:25.480Z,30.82
2018-07-30T08:53:25.526Z,30.97
2018-07-30T08:54:25.566Z,31.01
2018-07-30T08:55:25.609Z,31.14
2018-07-30T08:56:25.706Z,30.97
2018-07-30T08:57:25.696Z,31.09
2018-07-30T08:58:25.737Z,31.06
2018-07-30T08:59:25.779Z,30.99
2018-07-30T09:00:25.822Z,31.19
2018-07-30T09:01:25.863Z,31.32
2018-07-30T09:02:25.908Z,31.29
2018-07-30T09:03:25.950Z,31.28
2018-07-30T09:04:25.992Z,31.26
2018-07-30T09:05:26.037Z,31.41
2018-07-30T09:06:28.701Z,31.41
2018-07-30T09:07:26.129Z,31.50
2018-07-30T09:08:26.169Z,31.47
2018-07-30T09:09:26.209Z,31.51
2018-07-30T09:10:26.251Z,31.53
2018-07-30T09:11:26.296Z,31.76
2018-07-30T09:12:26.348Z,31.78
2018-07-30T09:13:26.382Z,31.63
2018-07-30T09:14:26.425Z,31.68
2018-07-30T09:15:26.470Z,31.89
2018-07-30T09:16:26.512Z,31.89
2018-07-30T09:17:26.555Z,31.95
2018-07-30T09:18:26.603Z,32.00
2018-07-30T09:19:26.643Z,32.03
2018-07-30T09:20:26.685Z,31.96
2018-07-30T09:21:26.732Z,32.01
2018-07-30T09:22:26.772Z,32.11
2018-07-30T09:23:26.818Z,32.29
2018-07-30T09:24:26.863Z,32.32
2018-07-30T09:25:26.905Z,32.45
2018-07-30T09:26:26.979Z,32.50
2018-07-30T09:27:27.002Z,32.57
2018-07-30T09:28:27.036Z,32.70
2018-07-30T09:29:27.079Z,32.74
2018-07-30T09:30:27.124Z,32.77
2018-07-30T09:31:27.168Z,32.85
2018-07-30T09:32:27.212Z,32.82
2018-07-30T09:33:27.255Z,32.92
2018-07-30T09:34:27.300Z,32.96
2018-07-30T09:35:27.344Z,33.12
2018-07-30T09:36:27.389Z,33.39
2018-07-30T09:37:27.436Z,33.37
2018-07-30T09:38:27.477Z,33.34
2018-07-30T09:39:27.563Z,33.39
2018-07-30T09:40:27.568Z,33.50
2018-07-30T09:41:27.611Z,33.66
2018-07-30T09:42:27.655Z,33.63
2018-07-30T09:43:27.705Z,33.60
2018-07-30T09:44:27.762Z,33.66
2018-07-30T09:45:27.789Z,33.88
2018-07-30T09:46:27.836Z,33.90
2018-07-30T09:47:27.879Z,33.91
2018-07-30T09:48:27.925Z,33.76
2018-07-30T09:49:27.974Z,33.84
2018-07-30T09:50:28.084Z,34.12
2018-07-30T09:52:28.104Z,34.09
2018-07-30T09:53:28.147Z,34.10
2018-07-30T09:54:28.192Z,34.16
2018-07-30T09:55:28.240Z,34.06
2018-07-30T09:56:28.283Z,33.63
2018-07-30T09:57:28.328Z,33.91
2018-07-30T09:58:28.373Z,33.90
2018-07-30T09:59:28.424Z,34.17
2018-07-30T10:00:28.462Z,33.91
2018-07-30T10:01:28.507Z,33.86
2018-07-30T10:02:28.553Z,33.91
2018-07-30T10:03:28.600Z,34.15
2018-07-30T10:04:28.644Z,34.30
2018-07-30T10:05:28.695Z,34.47
2018-07-30T10:06:28.735Z,34.49
2018-07-30T10:07:28.841Z,34.52
2018-07-30T10:08:28.829Z,34.42
2018-07-30T10:09:28.871Z,34.43
2018-07-30T10:10:28.916Z,34.56
2018-07-30T10:11:29.000Z,34.69
2018-07-30T10:12:29.006Z,34.78
2018-07-30T10:13:29.056Z,34.99
2018-07-30T10:14:32.132Z,34.91
2018-07-30T10:15:29.143Z,34.91
2018-07-30T10:16:29.191Z,35.02
2018-07-30T10:17:29.261Z,34.99
2018-07-30T10:18:29.281Z,35.11
2018-07-30T10:19:29.327Z,34.87
2018-07-30T10:20:29.374Z,35.15
2018-07-30T10:21:29.417Z,35.60
2018-07-30T10:22:29.464Z,36.07
2018-07-30T10:23:29.514Z,36.44
2018-07-30T10:24:29.555Z,36.91
2018-07-30T10:25:29.603Z,37.56
2018-07-30T10:26:29.653Z,37.29
2018-07-30T10:27:29.700Z,38.40
2018-07-30T10:28:29.747Z,38.59
2018-07-30T10:29:29.796Z,39.25
2018-07-30T10:30:29.869Z,39.91
2018-07-30T10:31:32.517Z,40.55
2018-07-30T10:32:29.944Z,40.91
2018-07-30T10:33:29.999Z,41.54
2018-07-30T10:34:30.060Z,41.52
2018-07-30T10:35:30.098Z,42.18
2018-07-30T10:36:30.149Z,42.70
2018-07-30T10:37:30.201Z,42.54
2018-07-30T10:38:30.254Z,42.61
2018-07-30T10:39:30.305Z,43.10
2018-07-30T10:40:30.360Z,43.08
2018-07-30T10:41:30.415Z,42.01
2018-07-30T10:42:30.465Z,41.89
2018-07-30T10:43:30.519Z,42.27
2018-07-30T10:44:31.587Z,41.91
2018-07-30T10:45:30.852Z,42.52
2018-07-30T10:46:30.681Z,42.62
2018-07-30T10:47:33.360Z,43.11
2018-07-30T10:48:31.196Z,43.05
2018-07-30T10:49:30.844Z,42.98
2018-07-30T10:50:30.901Z,43.14
2018-07-30T10:51:31.182Z,41.74
2018-07-30T10:52:31.020Z,42.18
2018-07-30T10:53:31.069Z,42.86
2018-07-30T10:54:31.124Z,43.05
2018-07-30T10:55:31.180Z,42.33
2018-07-30T10:56:31.235Z,43.28
2018-07-30T10:57:31.292Z,43.97
2018-07-30T10:58:31.369Z,44.70
2018-07-30T11:00:14.299Z,45.72
2018-07-30T11:01:14.029Z,45.79
2018-07-30T11:02:14.818Z,45.33
2018-07-30T11:03:14.143Z,45.01
2018-07-30T11:04:14.199Z,45.42
2018-07-30T11:05:14.257Z,45.80
2018-07-30T11:06:14.340Z,45.24
2018-07-30T11:07:14.371Z,45.20
2018-07-30T11:08:14.451Z,45.61
2018-07-30T11:09:14.485Z,45.84
2018-07-30T11:10:14.541Z,45.96
2018-07-30T11:11:14.599Z,46.12
2018-07-30T11:12:14.655Z,45.31
2018-07-30T11:13:14.714Z,45.33
2018-07-30T11:14:14.773Z,43.54
2018-07-30T11:15:14.829Z,43.03
2018-07-30T11:16:14.886Z,43.14
2018-07-30T11:17:14.943Z,43.50
2018-07-30T11:18:15.001Z,44.31
2018-07-30T11:19:15.060Z,44.59
2018-07-30T11:20:15.117Z,44.94
2018-07-30T11:21:15.175Z,44.64
2018-07-30T11:22:15.234Z,45.17
2018-07-30T11:23:15.291Z,45.32
2018-07-30T11:24:15.353Z,45.96
2018-07-30T11:25:15.450Z,46.39
2018-07-30T11:26:15.466Z,46.80
2018-07-30T11:27:15.523Z,46.14
2018-07-30T11:28:15.590Z,44.70
2018-07-30T11:29:15.640Z,44.41
2018-07-30T11:30:15.699Z,43.81
2018-07-30T11:31:15.757Z,43.79
2018-07-30T11:32:15.817Z,42.30
2018-07-30T11:33:15.874Z,42.91
2018-07-30T11:34:15.932Z,43.56
2018-07-30T11:35:15.991Z,43.90
2018-07-30T11:36:16.049Z,44.13
2018-07-30T11:37:16.108Z,44.31
2018-07-30T11:38:16.168Z,45.19
2018-07-30T11:39:16.226Z,45.38
2018-07-30T11:40:16.286Z,45.21
2018-07-30T11:41:16.348Z,44.29
2018-07-30T11:42:16.403Z,45.13
2018-07-30T11:43:16.463Z,44.36
2018-07-30T11:44:16.523Z,44.05
2018-07-30T11:45:16.581Z,44.43
2018-07-30T11:46:16.642Z,43.81
2018-07-30T11:47:16.700Z,44.13
2018-07-30T11:48:16.766Z,44.89
2018-07-30T11:49:16.823Z,45.73
2018-07-30T11:50:16.880Z,45.19
2018-07-30T11:51:16.940Z,45.13
2018-07-30T11:52:16.999Z,44.88
2018-07-30T11:53:17.058Z,44.98
2018-07-30T11:54:17.159Z,44.07
2018-07-30T11:55:17.178Z,44.78
2018-07-30T11:56:17.238Z,44.46
2018-07-30T11:57:17.298Z,45.36
2018-07-30T11:58:17.358Z,45.77
2018-07-30T11:59:17.418Z,45.53
2018-07-30T12:00:17.478Z,45.79
2018-07-30T12:01:17.550Z,46.59
2018-07-30T12:02:17.597Z,46.65
2018-07-30T12:03:17.654Z,46.11
2018-07-30T12:04:17.718Z,46.62
2018-07-30T12:05:17.776Z,47.12
2018-07-30T12:06:17.834Z,46.80
2018-07-30T12:07:17.895Z,46.61
2018-07-30T12:08:17.955Z,45.54
2018-07-30T12:09:18.014Z,44.94
2018-07-30T12:10:18.078Z,45.43
2018-07-30T12:11:18.135Z,46.28
2018-07-30T12:12:18.194Z,46.11
2018-07-30T12:13:18.254Z,46.43
2018-07-30T12:14:18.315Z,47.41
2018-07-30T12:15:18.373Z,46.78
2018-07-30T12:16:18.435Z,46.53
2018-07-30T12:17:18.500Z,46.65
2018-07-30T12:18:18.553Z,47.19
2018-07-30T12:19:18.629Z,47.51
2018-07-30T12:20:18.672Z,47.53
2018-07-30T12:21:18.731Z,48.06
2018-07-30T12:22:18.791Z,47.83
2018-07-30T12:23:18.850Z,47.00
2018-07-30T12:24:18.909Z,46.40
2018-07-30T12:25:18.969Z,46.81
2018-07-30T12:26:19.029Z,46.71
2018-07-30T12:27:19.087Z,46.59
2018-07-30T12:28:19.148Z,46.93
2018-07-30T12:29:19.226Z,47.18
2018-07-30T12:30:19.342Z,46.87
2018-07-30T12:31:19.326Z,45.72
2018-07-30T12:32:19.391Z,45.76
2018-07-30T12:33:19.446Z,46.19
2018-07-30T12:34:19.505Z,47.58
2018-07-30T12:35:19.564Z,48.01
2018-07-30T12:36:19.638Z,48.26
2018-07-30T12:37:19.684Z,48.13
2018-07-30T12:38:19.743Z,46.30
2018-07-30T12:39:19.802Z,46.53
2018-07-30T12:40:19.863Z,46.43
2018-07-30T12:41:19.921Z,47.41
2018-07-30T12:42:20.068Z,47.85
2018-07-30T12:43:20.041Z,48.48
2018-07-30T12:44:20.102Z,48.63
2018-07-30T12:45:20.161Z,48.81
2018-07-30T12:46:20.220Z,48.74
2018-07-30T12:47:20.280Z,48.88
2018-07-30T12:48:20.344Z,48.89
2018-07-30T12:49:20.402Z,48.96
2018-07-30T12:50:20.466Z,48.89
2018-07-30T12:51:20.523Z,49.18
2018-07-30T12:52:20.598Z,48.25
2018-07-30T12:53:20.641Z,48.85
2018-07-30T12:54:20.699Z,48.76
2018-07-30T12:55:20.759Z,46.77
2018-07-30T12:56:20.825Z,46.96
2018-07-30T12:57:20.880Z,47.58
2018-07-30T12:58:20.942Z,47.22
2018-07-30T12:59:21.000Z,47.80
2018-07-30T13:00:21.060Z,47.99
2018-07-30T13:01:21.120Z,47.45
2018-07-30T13:02:21.180Z,47.38
2018-07-30T13:03:21.243Z,47.47
2018-07-30T13:04:21.299Z,47.87
2018-07-30T13:05:21.360Z,47.54
2018-07-30T13:06:21.418Z,47.67
2018-07-30T13:07:21.476Z,48.10
2018-07-30T13:08:21.579Z,48.57
2018-07-30T13:09:21.597Z,48.47
2018-07-30T13:10:21.655Z,48.57
2018-07-30T13:11:21.721Z,48.86
2018-07-30T13:12:21.775Z,48.13
2018-07-30T13:13:21.834Z,48.18
2018-07-30T13:14:21.895Z,47.69
2018-07-30T13:15:21.955Z,47.40
2018-07-30T13:16:22.013Z,47.51
2018-07-30T13:17:22.071Z,48.11
2018-07-30T13:18:22.132Z,48.83